sensor_id;sensor_type;location;lat;lon;timestamp;P1;durP1;ratioP1;P2;durP2;ratioP2
47844;SDS011;33605;48.822;8.796;2022-09-30T00:01:24;4.57;;;4.17;;
47844;SDS011;33605;48.822;8.796;2022-09-30T00:03:50;5.53;;;4.03;;
47844;SDS011;33605;48.822;8.796;2022-09-30T00:06:16;4.80;;;4.30;;
47844;SDS011;33605;48.822;8.796;2022-09-30T00:08:44;7.27;;;3.90;;
47844;SDS011;33605;48.822;8.796;2022-09-30T00:11:12;5.30;;;4.70;;
47844;SDS011;33605;48.822;8.796;2022-09-30T00:13:40;7.10;;;4.67;;
47844;SDS011;33605;48.822;8.796;2022-09-30T00:16:07;5.27;;;4.10;;
47844;SDS011;33605;48.822;8.796;2022-09-30T00:18:34;4.80;;;3.63;;
47844;SDS011;33605;48.822;8.796;2022-09-30T00:21:00;4.40;;;4.00;;
47844;SDS011;33605;48.822;8.796;2022-09-30T00:23:26;4.47;;;3.90;;
47844;SDS011;33605;48.822;8.796;2022-09-30T00:25:59;3.77;;;3.37;;
47844;SDS011;33605;48.822;8.796;2022-09-30T00:28:26;5.10;;;4.17;;
47844;SDS011;33605;48.822;8.796;2022-09-30T00:30:52;3.73;;;3.43;;
47844;SDS011;33605;48.822;8.796;2022-09-30T00:33:19;4.33;;;3.70;;
47844;SDS011;33605;48.822;8.796;2022-09-30T00:35:45;4.70;;;3.70;;
47844;SDS011;33605;48.822;8.796;2022-09-30T00:38:11;5.83;;;3.90;;
47844;SDS011;33605;48.822;8.796;2022-09-30T00:40:37;4.70;;;3.70;;
47844;SDS011;33605;48.822;8.796;2022-09-30T00:43:08;3.90;;;3.60;;
47844;SDS011;33605;48.822;8.796;2022-09-30T00:45:35;5.77;;;4.47;;
47844;SDS011;33605;48.822;8.796;2022-09-30T00:55:33;5.73;;;3.40;;
47844;SDS011;33605;48.822;8.796;2022-09-30T00:58:00;4.23;;;3.80;;
47844;SDS011;33605;48.822;8.796;2022-09-30T01:00:27;4.07;;;3.67;;
47844;SDS011;33605;48.822;8.796;2022-09-30T01:02:54;3.87;;;3.43;;
47844;SDS011;33605;48.822;8.796;2022-09-30T01:05:20;4.23;;;3.63;;
47844;SDS011;33605;48.822;8.796;2022-09-30T01:07:47;6.13;;;4.20;;
47844;SDS011;33605;48.822;8.796;2022-09-30T01:10:13;5.07;;;3.63;;
47844;SDS011;33605;48.822;8.796;2022-09-30T01:12:39;4.70;;;4.20;;
47844;SDS011;33605;48.822;8.796;2022-09-30T01:15:05;6.07;;;4.17;;
47844;SDS011;33605;48.822;8.796;2022-09-30T01:17:50;7.27;;;3.57;;
47844;SDS011;33605;48.822;8.796;2022-09-30T01:22:56;3.93;;;3.53;;
47844;SDS011;33605;48.822;8.796;2022-09-30T01:25:47;3.43;;;3.13;;
47844;SDS011;33605;48.822;8.796;2022-09-30T01:28:30;5.63;;;3.60;;
47844;SDS011;33605;48.822;8.796;2022-09-30T01:41:55;4.10;;;3.67;;
47844;SDS011;33605;48.822;8.796;2022-09-30T01:47:16;6.03;;;4.07;;
47844;SDS011;33605;48.822;8.796;2022-09-30T01:49:49;8.27;;;4.37;;
47844;SDS011;33605;48.822;8.796;2022-09-30T01:52:19;3.83;;;2.90;;
47844;SDS011;33605;48.822;8.796;2022-09-30T01:57:16;3.73;;;3.30;;
47844;SDS011;33605;48.822;8.796;2022-09-30T02:02:28;3.87;;;3.47;;
47844;SDS011;33605;48.822;8.796;2022-09-30T02:05:04;4.90;;;4.07;;
47844;SDS011;33605;48.822;8.796;2022-09-30T02:07:35;4.27;;;3.87;;
47844;SDS011;33605;48.822;8.796;2022-09-30T02:10:11;6.10;;;4.60;;
47844;SDS011;33605;48.822;8.796;2022-09-30T02:12:41;6.20;;;4.03;;
47844;SDS011;33605;48.822;8.796;2022-09-30T02:15:11;4.20;;;3.47;;
47844;SDS011;33605;48.822;8.796;2022-09-30T02:17:39;3.93;;;3.63;;
47844;SDS011;33605;48.822;8.796;2022-09-30T02:20:09;9.67;;;4.07;;
47844;SDS011;33605;48.822;8.796;2022-09-30T02:22:39;5.83;;;4.23;;
47844;SDS011;33605;48.822;8.796;2022-09-30T02:25:09;7.73;;;4.07;;
47844;SDS011;33605;48.822;8.796;2022-09-30T02:27:39;3.77;;;3.37;;
47844;SDS011;33605;48.822;8.796;2022-09-30T02:30:07;3.97;;;3.50;;
47844;SDS011;33605;48.822;8.796;2022-09-30T02:32:43;4.03;;;3.67;;
47844;SDS011;33605;48.822;8.796;2022-09-30T02:38:01;3.77;;;3.40;;
47844;SDS011;33605;48.822;8.796;2022-09-30T02:40:34;5.40;;;5.00;;
47844;SDS011;33605;48.822;8.796;2022-09-30T02:43:03;3.67;;;3.37;;
47844;SDS011;33605;48.822;8.796;2022-09-30T02:45:30;3.73;;;3.33;;
47844;SDS011;33605;48.822;8.796;2022-09-30T02:50:32;4.90;;;2.97;;
47844;SDS011;33605;48.822;8.796;2022-09-30T02:53:12;3.80;;;3.40;;
47844;SDS011;33605;48.822;8.796;2022-09-30T02:58:12;6.43;;;3.77;;
47844;SDS011;33605;48.822;8.796;2022-09-30T03:00:38;3.70;;;3.10;;
47844;SDS011;33605;48.822;8.796;2022-09-30T03:03:09;6.93;;;3.60;;
47844;SDS011;33605;48.822;8.796;2022-09-30T03:05:37;4.00;;;2.90;;
47844;SDS011;33605;48.822;8.796;2022-09-30T03:08:03;4.50;;;3.13;;
47844;SDS011;33605;48.822;8.796;2022-09-30T03:10:29;3.47;;;3.17;;
47844;SDS011;33605;48.822;8.796;2022-09-30T03:18:51;3.63;;;3.33;;
47844;SDS011;33605;48.822;8.796;2022-09-30T03:36:38;4.67;;;3.43;;
47844;SDS011;33605;48.822;8.796;2022-09-30T03:44:07;3.43;;;3.10;;
47844;SDS011;33605;48.822;8.796;2022-09-30T03:46:37;4.53;;;3.80;;
47844;SDS011;33605;48.822;8.796;2022-09-30T03:49:06;4.90;;;4.03;;
47844;SDS011;33605;48.822;8.796;2022-09-30T03:51:36;4.90;;;4.17;;
47844;SDS011;33605;48.822;8.796;2022-09-30T03:54:05;4.30;;;3.77;;
47844;SDS011;33605;48.822;8.796;2022-09-30T03:56:32;7.60;;;3.70;;
47844;SDS011;33605;48.822;8.796;2022-09-30T03:58:58;5.50;;;3.83;;
47844;SDS011;33605;48.822;8.796;2022-09-30T04:01:25;7.40;;;5.43;;
47844;SDS011;33605;48.822;8.796;2022-09-30T04:03:51;7.80;;;6.00;;
47844;SDS011;33605;48.822;8.796;2022-09-30T04:06:18;5.60;;;4.67;;
47844;SDS011;33605;48.822;8.796;2022-09-30T04:08:45;8.53;;;4.90;;
47844;SDS011;33605;48.822;8.796;2022-09-30T04:11:11;15.13;;;4.73;;
47844;SDS011;33605;48.822;8.796;2022-09-30T04:13:37;4.17;;;3.80;;
47844;SDS011;33605;48.822;8.796;2022-09-30T04:16:04;3.90;;;3.30;;
47844;SDS011;33605;48.822;8.796;2022-09-30T04:18:32;2.90;;;2.70;;
47844;SDS011;33605;48.822;8.796;2022-09-30T04:20:59;5.00;;;3.90;;
47844;SDS011;33605;48.822;8.796;2022-09-30T04:23:26;4.07;;;3.03;;
47844;SDS011;33605;48.822;8.796;2022-09-30T04:25:52;3.87;;;3.57;;
47844;SDS011;33605;48.822;8.796;2022-09-30T04:28:18;3.40;;;3.10;;
47844;SDS011;33605;48.822;8.796;2022-09-30T04:30:45;5.23;;;2.83;;
47844;SDS011;33605;48.822;8.796;2022-09-30T04:33:11;3.00;;;2.80;;
47844;SDS011;33605;48.822;8.796;2022-09-30T04:35:37;4.40;;;3.60;;
47844;SDS011;33605;48.822;8.796;2022-09-30T04:38:04;4.00;;;3.27;;
47844;SDS011;33605;48.822;8.796;2022-09-30T04:40:31;4.77;;;3.50;;
47844;SDS011;33605;48.822;8.796;2022-09-30T04:43:00;3.63;;;3.33;;
47844;SDS011;33605;48.822;8.796;2022-09-30T04:45:26;3.47;;;3.17;;
47844;SDS011;33605;48.822;8.796;2022-09-30T04:47:54;4.40;;;4.00;;
47844;SDS011;33605;48.822;8.796;2022-09-30T04:50:20;4.70;;;4.30;;
47844;SDS011;33605;48.822;8.796;2022-09-30T04:52:46;4.80;;;3.77;;
47844;SDS011;33605;48.822;8.796;2022-09-30T04:55:12;6.00;;;4.10;;
47844;SDS011;33605;48.822;8.796;2022-09-30T04:57:38;6.40;;;3.97;;
47844;SDS011;33605;48.822;8.796;2022-09-30T05:00:04;5.17;;;3.63;;
47844;SDS011;33605;48.822;8.796;2022-09-30T05:02:33;4.80;;;3.80;;
47844;SDS011;33605;48.822;8.796;2022-09-30T05:04:59;4.43;;;3.20;;
47844;SDS011;33605;48.822;8.796;2022-09-30T05:07:27;3.10;;;2.83;;
47844;SDS011;33605;48.822;8.796;2022-09-30T05:09:53;5.30;;;3.40;;
47844;SDS011;33605;48.822;8.796;2022-09-30T05:12:19;3.87;;;3.50;;
47844;SDS011;33605;48.822;8.796;2022-09-30T05:14:44;4.40;;;3.43;;
47844;SDS011;33605;48.822;8.796;2022-09-30T05:17:10;3.97;;;3.57;;
47844;SDS011;33605;48.822;8.796;2022-09-30T05:19:36;3.90;;;3.20;;
47844;SDS011;33605;48.822;8.796;2022-09-30T05:22:01;5.43;;;3.10;;
47844;SDS011;33605;48.822;8.796;2022-09-30T05:24:27;4.40;;;3.33;;
47844;SDS011;33605;48.822;8.796;2022-09-30T05:26:54;4.07;;;3.50;;
47844;SDS011;33605;48.822;8.796;2022-09-30T05:29:20;6.40;;;3.00;;
47844;SDS011;33605;48.822;8.796;2022-09-30T05:31:46;3.47;;;3.17;;
47844;SDS011;33605;48.822;8.796;2022-09-30T05:34:11;3.70;;;3.40;;
47844;SDS011;33605;48.822;8.796;2022-09-30T05:36:40;6.70;;;3.73;;
47844;SDS011;33605;48.822;8.796;2022-09-30T05:39:07;4.33;;;3.90;;
47844;SDS011;33605;48.822;8.796;2022-09-30T05:41:33;3.63;;;3.33;;
47844;SDS011;33605;48.822;8.796;2022-09-30T05:43:58;3.97;;;3.63;;
47844;SDS011;33605;48.822;8.796;2022-09-30T05:46:25;4.20;;;3.67;;
47844;SDS011;33605;48.822;8.796;2022-09-30T05:48:52;3.50;;;3.20;;
47844;SDS011;33605;48.822;8.796;2022-09-30T05:51:18;3.20;;;2.90;;
47844;SDS011;33605;48.822;8.796;2022-09-30T05:53:44;4.47;;;3.67;;
47844;SDS011;33605;48.822;8.796;2022-09-30T05:56:11;5.90;;;4.07;;
47844;SDS011;33605;48.822;8.796;2022-09-30T05:58:37;4.50;;;3.77;;
47844;SDS011;33605;48.822;8.796;2022-09-30T06:01:07;4.83;;;3.47;;
47844;SDS011;33605;48.822;8.796;2022-09-30T06:03:34;3.83;;;3.53;;
47844;SDS011;33605;48.822;8.796;2022-09-30T06:06:00;4.63;;;3.83;;
47844;SDS011;33605;48.822;8.796;2022-09-30T06:08:27;4.20;;;3.50;;
47844;SDS011;33605;48.822;8.796;2022-09-30T06:10:53;4.87;;;4.00;;
47844;SDS011;33605;48.822;8.796;2022-09-30T06:13:19;7.60;;;5.10;;
47844;SDS011;33605;48.822;8.796;2022-09-30T06:15:55;6.40;;;4.97;;
47844;SDS011;33605;48.822;8.796;2022-09-30T06:18:21;3.70;;;3.40;;
47844;SDS011;33605;48.822;8.796;2022-09-30T06:20:48;7.20;;;4.50;;
47844;SDS011;33605;48.822;8.796;2022-09-30T06:23:14;4.60;;;4.20;;
47844;SDS011;33605;48.822;8.796;2022-09-30T06:25:40;6.23;;;3.93;;
47844;SDS011;33605;48.822;8.796;2022-09-30T06:28:07;6.90;;;4.50;;
47844;SDS011;33605;48.822;8.796;2022-09-30T06:30:33;3.90;;;3.50;;
47844;SDS011;33605;48.822;8.796;2022-09-30T06:32:59;5.17;;;4.10;;
47844;SDS011;33605;48.822;8.796;2022-09-30T06:35:26;3.33;;;3.03;;
47844;SDS011;33605;48.822;8.796;2022-09-30T06:37:53;3.80;;;3.37;;
47844;SDS011;33605;48.822;8.796;2022-09-30T06:40:19;6.90;;;4.67;;
47844;SDS011;33605;48.822;8.796;2022-09-30T06:42:45;7.10;;;6.47;;
47844;SDS011;33605;48.822;8.796;2022-09-30T06:45:12;9.40;;;6.10;;
47844;SDS011;33605;48.822;8.796;2022-09-30T06:47:38;7.97;;;5.10;;
47844;SDS011;33605;48.822;8.796;2022-09-30T06:50:04;6.80;;;5.13;;
47844;SDS011;33605;48.822;8.796;2022-09-30T06:52:30;6.10;;;4.53;;
47844;SDS011;33605;48.822;8.796;2022-09-30T06:54:57;5.43;;;4.43;;
47844;SDS011;33605;48.822;8.796;2022-09-30T06:57:23;6.60;;;4.60;;
47844;SDS011;33605;48.822;8.796;2022-09-30T06:59:51;6.77;;;3.90;;
47844;SDS011;33605;48.822;8.796;2022-09-30T07:02:18;5.00;;;4.30;;
47844;SDS011;33605;48.822;8.796;2022-09-30T07:04:45;7.13;;;5.00;;
47844;SDS011;33605;48.822;8.796;2022-09-30T07:07:12;6.37;;;5.70;;
47844;SDS011;33605;48.822;8.796;2022-09-30T07:09:39;5.20;;;4.70;;
47844;SDS011;33605;48.822;8.796;2022-09-30T07:12:07;7.00;;;4.97;;
47844;SDS011;33605;48.822;8.796;2022-09-30T07:14:33;5.97;;;5.23;;
47844;SDS011;33605;48.822;8.796;2022-09-30T07:16:59;5.27;;;4.60;;
47844;SDS011;33605;48.822;8.796;2022-09-30T07:19:28;5.07;;;4.67;;
47844;SDS011;33605;48.822;8.796;2022-09-30T07:21:54;5.67;;;4.60;;
47844;SDS011;33605;48.822;8.796;2022-09-30T07:24:20;5.30;;;3.93;;
47844;SDS011;33605;48.822;8.796;2022-09-30T07:26:46;5.70;;;4.30;;
47844;SDS011;33605;48.822;8.796;2022-09-30T07:29:12;4.93;;;4.30;;
47844;SDS011;33605;48.822;8.796;2022-09-30T07:31:38;4.90;;;4.40;;
47844;SDS011;33605;48.822;8.796;2022-09-30T07:34:05;6.07;;;4.77;;
47844;SDS011;33605;48.822;8.796;2022-09-30T07:36:32;6.40;;;4.90;;
47844;SDS011;33605;48.822;8.796;2022-09-30T07:39:00;6.40;;;4.87;;
47844;SDS011;33605;48.822;8.796;2022-09-30T07:41:29;7.00;;;5.80;;
47844;SDS011;33605;48.822;8.796;2022-09-30T07:43:55;6.97;;;5.93;;
47844;SDS011;33605;48.822;8.796;2022-09-30T07:46:25;5.60;;;5.03;;
47844;SDS011;33605;48.822;8.796;2022-09-30T07:48:53;7.00;;;5.90;;
47844;SDS011;33605;48.822;8.796;2022-09-30T07:51:23;6.57;;;5.83;;
47844;SDS011;33605;48.822;8.796;2022-09-30T07:53:53;7.80;;;6.07;;
47844;SDS011;33605;48.822;8.796;2022-09-30T07:56:20;6.53;;;5.83;;
47844;SDS011;33605;48.822;8.796;2022-09-30T07:58:47;8.53;;;6.20;;
47844;SDS011;33605;48.822;8.796;2022-09-30T08:01:13;7.83;;;7.03;;
47844;SDS011;33605;48.822;8.796;2022-09-30T08:03:39;11.13;;;7.40;;
47844;SDS011;33605;48.822;8.796;2022-09-30T08:06:09;10.33;;;7.07;;
47844;SDS011;33605;48.822;8.796;2022-09-30T08:08:36;10.53;;;6.33;;
47844;SDS011;33605;48.822;8.796;2022-09-30T08:11:03;12.20;;;7.30;;
47844;SDS011;33605;48.822;8.796;2022-09-30T08:13:29;13.70;;;7.57;;
47844;SDS011;33605;48.822;8.796;2022-09-30T08:15:56;8.57;;;7.30;;
47844;SDS011;33605;48.822;8.796;2022-09-30T08:18:22;8.63;;;7.30;;
47844;SDS011;33605;48.822;8.796;2022-09-30T08:20:48;7.40;;;6.60;;
47844;SDS011;33605;48.822;8.796;2022-09-30T08:23:14;14.00;;;7.40;;
47844;SDS011;33605;48.822;8.796;2022-09-30T08:25:41;9.50;;;6.80;;
47844;SDS011;33605;48.822;8.796;2022-09-30T08:28:07;7.50;;;6.40;;
47844;SDS011;33605;48.822;8.796;2022-09-30T08:30:33;10.90;;;7.30;;
47844;SDS011;33605;48.822;8.796;2022-09-30T08:32:59;7.90;;;6.30;;
47844;SDS011;33605;48.822;8.796;2022-09-30T08:35:25;9.70;;;7.50;;
47844;SDS011;33605;48.822;8.796;2022-09-30T08:37:52;9.70;;;7.13;;
47844;SDS011;33605;48.822;8.796;2022-09-30T08:40:28;11.40;;;6.70;;
47844;SDS011;33605;48.822;8.796;2022-09-30T08:43:05;8.33;;;7.47;;
47844;SDS011;33605;48.822;8.796;2022-09-30T08:52:58;10.80;;;7.60;;
47844;SDS011;33605;48.822;8.796;2022-09-30T08:55:28;9.83;;;6.97;;
47844;SDS011;33605;48.822;8.796;2022-09-30T08:57:56;12.33;;;8.60;;
47844;SDS011;33605;48.822;8.796;2022-09-30T09:00:22;11.33;;;7.87;;
47844;SDS011;33605;48.822;8.796;2022-09-30T09:02:56;13.10;;;7.67;;
47844;SDS011;33605;48.822;8.796;2022-09-30T09:10:44;11.97;;;8.10;;
47844;SDS011;33605;48.822;8.796;2022-09-30T09:15:58;10.87;;;7.80;;
47844;SDS011;33605;48.822;8.796;2022-09-30T09:18:40;11.30;;;7.13;;
47844;SDS011;33605;48.822;8.796;2022-09-30T09:21:16;7.97;;;6.93;;
47844;SDS011;33605;48.822;8.796;2022-09-30T09:23:45;7.67;;;6.87;;
47844;SDS011;33605;48.822;8.796;2022-09-30T09:26:11;10.53;;;8.00;;
47844;SDS011;33605;48.822;8.796;2022-09-30T09:31:06;11.37;;;7.77;;
47844;SDS011;33605;48.822;8.796;2022-09-30T09:33:34;11.23;;;7.40;;
47844;SDS011;33605;48.822;8.796;2022-09-30T09:38:30;9.90;;;6.40;;
47844;SDS011;33605;48.822;8.796;2022-09-30T09:48:29;9.33;;;6.90;;
47844;SDS011;33605;48.822;8.796;2022-09-30T09:51:05;7.27;;;6.47;;
47844;SDS011;33605;48.822;8.796;2022-09-30T09:56:38;6.90;;;5.83;;
47844;SDS011;33605;48.822;8.796;2022-09-30T10:06:49;8.27;;;6.23;;
47844;SDS011;33605;48.822;8.796;2022-09-30T10:17:00;7.80;;;6.57;;
47844;SDS011;33605;48.822;8.796;2022-09-30T10:19:27;9.20;;;6.43;;
47844;SDS011;33605;48.822;8.796;2022-09-30T10:22:36;6.60;;;5.23;;
47844;SDS011;33605;48.822;8.796;2022-09-30T10:24:43;5.73;;;4.47;;
47844;SDS011;33605;48.822;8.796;2022-09-30T10:27:26;5.90;;;5.23;;
47844;SDS011;33605;48.822;8.796;2022-09-30T10:29:53;7.20;;;5.10;;
47844;SDS011;33605;48.822;8.796;2022-09-30T10:32:19;7.30;;;4.70;;
47844;SDS011;33605;48.822;8.796;2022-09-30T10:34:45;5.40;;;4.90;;
47844;SDS011;33605;48.822;8.796;2022-09-30T10:37:16;6.00;;;4.47;;
47844;SDS011;33605;48.822;8.796;2022-09-30T10:39:47;4.53;;;3.63;;
47844;SDS011;33605;48.822;8.796;2022-09-30T10:47:17;5.93;;;4.33;;
47844;SDS011;33605;48.822;8.796;2022-09-30T10:49:46;4.50;;;3.77;;
47844;SDS011;33605;48.822;8.796;2022-09-30T10:52:17;4.23;;;3.83;;
47844;SDS011;33605;48.822;8.796;2022-09-30T10:57:20;4.30;;;3.90;;
47844;SDS011;33605;48.822;8.796;2022-09-30T10:59:47;6.53;;;4.43;;
47844;SDS011;33605;48.822;8.796;2022-09-30T11:02:19;4.47;;;4.00;;
47844;SDS011;33605;48.822;8.796;2022-09-30T11:04:50;4.43;;;3.73;;
47844;SDS011;33605;48.822;8.796;2022-09-30T11:07:26;4.23;;;3.83;;
47844;SDS011;33605;48.822;8.796;2022-09-30T11:09:56;5.43;;;3.00;;
47844;SDS011;33605;48.822;8.796;2022-09-30T11:12:39;3.00;;;2.70;;
47844;SDS011;33605;48.822;8.796;2022-09-30T11:17:37;5.70;;;3.83;;
47844;SDS011;33605;48.822;8.796;2022-09-30T11:24:59;5.00;;;4.50;;
47844;SDS011;33605;48.822;8.796;2022-09-30T11:30:00;4.50;;;4.10;;
47844;SDS011;33605;48.822;8.796;2022-09-30T11:32:43;3.60;;;3.30;;
47844;SDS011;33605;48.822;8.796;2022-09-30T11:37:56;4.70;;;3.83;;
47844;SDS011;33605;48.822;8.796;2022-09-30T11:42:56;3.73;;;3.30;;
47844;SDS011;33605;48.822;8.796;2022-09-30T11:48:20;4.00;;;3.20;;
47844;SDS011;33605;48.822;8.796;2022-09-30T11:56:03;3.70;;;2.70;;
47844;SDS011;33605;48.822;8.796;2022-09-30T11:58:38;3.10;;;2.80;;
47844;SDS011;33605;48.822;8.796;2022-09-30T12:03:37;2.60;;;2.40;;
47844;SDS011;33605;48.822;8.796;2022-09-30T12:06:28;4.70;;;2.60;;
47844;SDS011;33605;48.822;8.796;2022-09-30T12:08:52;5.60;;;3.40;;
47844;SDS011;33605;48.822;8.796;2022-09-30T12:13:59;5.30;;;2.53;;
47844;SDS011;33605;48.822;8.796;2022-09-30T12:16:29;8.60;;;2.80;;
47844;SDS011;33605;48.822;8.796;2022-09-30T12:21:23;2.63;;;2.43;;
47844;SDS011;33605;48.822;8.796;2022-09-30T12:26:21;3.23;;;2.93;;
47844;SDS011;33605;48.822;8.796;2022-09-30T12:28:53;4.73;;;2.43;;
47844;SDS011;33605;48.822;8.796;2022-09-30T12:39:13;4.73;;;3.20;;
47844;SDS011;33605;48.822;8.796;2022-09-30T12:49:56;3.43;;;2.87;;
47844;SDS011;33605;48.822;8.796;2022-09-30T12:52:23;4.00;;;1.90;;
47844;SDS011;33605;48.822;8.796;2022-09-30T12:54:51;2.77;;;2.57;;
47844;SDS011;33605;48.822;8.796;2022-09-30T12:57:19;4.47;;;2.67;;
47844;SDS011;33605;48.822;8.796;2022-09-30T12:59:52;3.37;;;2.60;;
47844;SDS011;33605;48.822;8.796;2022-09-30T13:04:58;4.13;;;2.50;;
47844;SDS011;33605;48.822;8.796;2022-09-30T13:08:07;2.50;;;2.30;;
47844;SDS011;33605;48.822;8.796;2022-09-30T13:10:32;2.37;;;2.17;;
47844;SDS011;33605;48.822;8.796;2022-09-30T13:15:43;3.10;;;2.70;;
47844;SDS011;33605;48.822;8.796;2022-09-30T13:24:14;3.57;;;2.57;;
47844;SDS011;33605;48.822;8.796;2022-09-30T13:31:25;2.87;;;2.53;;
47844;SDS011;33605;48.822;8.796;2022-09-30T13:36:40;2.50;;;2.10;;
47844;SDS011;33605;48.822;8.796;2022-09-30T13:44:21;7.77;;;4.30;;
47844;SDS011;33605;48.822;8.796;2022-09-30T13:46:50;3.13;;;2.83;;
47844;SDS011;33605;48.822;8.796;2022-09-30T13:49:20;3.00;;;2.73;;
47844;SDS011;33605;48.822;8.796;2022-09-30T13:51:48;3.10;;;2.53;;
47844;SDS011;33605;48.822;8.796;2022-09-30T13:54:25;3.90;;;2.80;;
47844;SDS011;33605;48.822;8.796;2022-09-30T13:56:52;3.47;;;2.50;;
47844;SDS011;33605;48.822;8.796;2022-09-30T13:59:30;6.33;;;3.13;;
47844;SDS011;33605;48.822;8.796;2022-09-30T14:20:45;3.30;;;2.50;;
47844;SDS011;33605;48.822;8.796;2022-09-30T14:23:17;2.77;;;2.13;;
47844;SDS011;33605;48.822;8.796;2022-09-30T14:26:11;3.70;;;2.40;;
47844;SDS011;33605;48.822;8.796;2022-09-30T14:28:33;4.23;;;2.70;;
47844;SDS011;33605;48.822;8.796;2022-09-30T14:31:01;3.83;;;2.80;;
47844;SDS011;33605;48.822;8.796;2022-09-30T14:33:33;4.40;;;2.27;;
47844;SDS011;33605;48.822;8.796;2022-09-30T14:36:00;3.80;;;2.80;;
47844;SDS011;33605;48.822;8.796;2022-09-30T14:38:27;4.23;;;2.70;;
47844;SDS011;33605;48.822;8.796;2022-09-30T14:40:58;2.90;;;2.60;;
47844;SDS011;33605;48.822;8.796;2022-09-30T14:43:26;3.87;;;2.90;;
47844;SDS011;33605;48.822;8.796;2022-09-30T14:45:58;3.63;;;2.70;;
47844;SDS011;33605;48.822;8.796;2022-09-30T14:48:30;3.83;;;3.07;;
47844;SDS011;33605;48.822;8.796;2022-09-30T14:51:05;5.20;;;2.80;;
47844;SDS011;33605;48.822;8.796;2022-09-30T14:53:34;2.87;;;2.67;;
47844;SDS011;33605;48.822;8.796;2022-09-30T14:56:01;3.03;;;2.73;;
47844;SDS011;33605;48.822;8.796;2022-09-30T14:58:29;2.90;;;2.60;;
47844;SDS011;33605;48.822;8.796;2022-09-30T15:03:34;3.03;;;2.70;;
47844;SDS011;33605;48.822;8.796;2022-09-30T15:06:01;5.17;;;2.77;;
47844;SDS011;33605;48.822;8.796;2022-09-30T15:08:27;3.00;;;2.63;;
47844;SDS011;33605;48.822;8.796;2022-09-30T15:10:53;2.73;;;2.47;;
47844;SDS011;33605;48.822;8.796;2022-09-30T15:13:20;4.10;;;2.37;;
47844;SDS011;33605;48.822;8.796;2022-09-30T15:15:47;5.80;;;2.40;;
47844;SDS011;33605;48.822;8.796;2022-09-30T15:20:48;3.20;;;2.33;;
47844;SDS011;33605;48.822;8.796;2022-09-30T15:23:18;2.73;;;2.10;;
47844;SDS011;33605;48.822;8.796;2022-09-30T15:25:46;2.10;;;1.97;;
47844;SDS011;33605;48.822;8.796;2022-09-30T15:28:12;3.57;;;2.30;;
47844;SDS011;33605;48.822;8.796;2022-09-30T15:30:41;2.77;;;2.40;;
47844;SDS011;33605;48.822;8.796;2022-09-30T15:33:11;3.20;;;2.17;;
47844;SDS011;33605;48.822;8.796;2022-09-30T15:35:38;3.50;;;1.90;;
47844;SDS011;33605;48.822;8.796;2022-09-30T15:38:05;2.67;;;2.27;;
47844;SDS011;33605;48.822;8.796;2022-09-30T15:40:32;3.57;;;2.97;;
47844;SDS011;33605;48.822;8.796;2022-09-30T15:43:11;4.20;;;3.80;;
47844;SDS011;33605;48.822;8.796;2022-09-30T15:45:41;4.90;;;4.50;;
47844;SDS011;33605;48.822;8.796;2022-09-30T15:50:55;4.17;;;2.93;;
47844;SDS011;33605;48.822;8.796;2022-09-30T15:53:24;6.40;;;3.50;;
47844;SDS011;33605;48.822;8.796;2022-09-30T15:55:52;3.60;;;3.30;;
47844;SDS011;33605;48.822;8.796;2022-09-30T16:01:37;3.93;;;3.60;;
47844;SDS011;33605;48.822;8.796;2022-09-30T16:03:39;4.63;;;3.70;;
47844;SDS011;33605;48.822;8.796;2022-09-30T16:06:11;6.23;;;3.10;;
47844;SDS011;33605;48.822;8.796;2022-09-30T16:08:40;4.10;;;3.50;;
47844;SDS011;33605;48.822;8.796;2022-09-30T16:11:07;5.77;;;4.00;;
47844;SDS011;33605;48.822;8.796;2022-09-30T16:13:33;6.10;;;3.40;;
47844;SDS011;33605;48.822;8.796;2022-09-30T16:16:01;7.40;;;3.67;;
47844;SDS011;33605;48.822;8.796;2022-09-30T16:18:28;3.93;;;3.63;;
47844;SDS011;33605;48.822;8.796;2022-09-30T16:21:02;5.07;;;3.27;;
47844;SDS011;33605;48.822;8.796;2022-09-30T16:23:36;4.90;;;3.47;;
47844;SDS011;33605;48.822;8.796;2022-09-30T16:28:37;5.50;;;3.87;;
47844;SDS011;33605;48.822;8.796;2022-09-30T16:31:03;5.90;;;3.90;;
47844;SDS011;33605;48.822;8.796;2022-09-30T16:33:39;6.23;;;4.63;;
47844;SDS011;33605;48.822;8.796;2022-09-30T16:36:06;8.90;;;6.13;;
47844;SDS011;33605;48.822;8.796;2022-09-30T16:38:32;12.67;;;7.77;;
47844;SDS011;33605;48.822;8.796;2022-09-30T16:41:00;7.40;;;5.90;;
47844;SDS011;33605;48.822;8.796;2022-09-30T16:43:27;8.13;;;6.10;;
47844;SDS011;33605;48.822;8.796;2022-09-30T16:45:55;8.77;;;6.70;;
47844;SDS011;33605;48.822;8.796;2022-09-30T16:48:21;7.90;;;5.07;;
47844;SDS011;33605;48.822;8.796;2022-09-30T16:53:13;13.20;;;8.40;;
47844;SDS011;33605;48.822;8.796;2022-09-30T16:55:39;8.03;;;6.73;;
47844;SDS011;33605;48.822;8.796;2022-09-30T16:58:08;11.70;;;8.33;;
47844;SDS011;33605;48.822;8.796;2022-09-30T17:00:34;8.87;;;7.60;;
47844;SDS011;33605;48.822;8.796;2022-09-30T17:03:00;7.67;;;5.07;;
47844;SDS011;33605;48.822;8.796;2022-09-30T17:05:26;5.83;;;4.50;;
47844;SDS011;33605;48.822;8.796;2022-09-30T17:07:53;7.73;;;3.83;;
47844;SDS011;33605;48.822;8.796;2022-09-30T17:10:22;4.57;;;4.17;;
47844;SDS011;33605;48.822;8.796;2022-09-30T17:12:48;4.20;;;3.57;;
47844;SDS011;33605;48.822;8.796;2022-09-30T17:15:14;9.00;;;4.97;;
47844;SDS011;33605;48.822;8.796;2022-09-30T17:17:40;10.03;;;5.90;;
47844;SDS011;33605;48.822;8.796;2022-09-30T17:20:06;9.03;;;8.03;;
47844;SDS011;33605;48.822;8.796;2022-09-30T17:22:33;6.20;;;5.60;;
47844;SDS011;33605;48.822;8.796;2022-09-30T17:24:59;7.13;;;4.70;;
47844;SDS011;33605;48.822;8.796;2022-09-30T17:27:25;5.60;;;4.60;;
47844;SDS011;33605;48.822;8.796;2022-09-30T17:29:51;5.53;;;4.00;;
47844;SDS011;33605;48.822;8.796;2022-09-30T17:32:17;7.47;;;3.90;;
47844;SDS011;33605;48.822;8.796;2022-09-30T17:34:43;7.30;;;3.87;;
47844;SDS011;33605;48.822;8.796;2022-09-30T17:37:09;4.57;;;3.50;;
47844;SDS011;33605;48.822;8.796;2022-09-30T17:39:37;5.03;;;3.77;;
47844;SDS011;33605;48.822;8.796;2022-09-30T17:42:03;4.50;;;4.10;;
47844;SDS011;33605;48.822;8.796;2022-09-30T17:44:48;6.37;;;5.00;;
47844;SDS011;33605;48.822;8.796;2022-09-30T17:47:14;17.90;;;15.00;;
47844;SDS011;33605;48.822;8.796;2022-09-30T17:49:40;32.90;;;26.30;;
47844;SDS011;33605;48.822;8.796;2022-09-30T17:52:06;25.37;;;21.13;;
47844;SDS011;33605;48.822;8.796;2022-09-30T17:54:32;19.03;;;14.87;;
47844;SDS011;33605;48.822;8.796;2022-09-30T17:56:58;8.43;;;7.63;;
47844;SDS011;33605;48.822;8.796;2022-09-30T17:59:24;6.87;;;6.20;;
47844;SDS011;33605;48.822;8.796;2022-09-30T18:01:52;9.57;;;6.63;;
47844;SDS011;33605;48.822;8.796;2022-09-30T18:04:20;6.30;;;5.30;;
47844;SDS011;33605;48.822;8.796;2022-09-30T18:06:48;5.17;;;4.37;;
47844;SDS011;33605;48.822;8.796;2022-09-30T18:09:14;4.80;;;4.37;;
47844;SDS011;33605;48.822;8.796;2022-09-30T18:11:40;8.77;;;4.90;;
47844;SDS011;33605;48.822;8.796;2022-09-30T18:14:09;7.53;;;5.50;;
47844;SDS011;33605;48.822;8.796;2022-09-30T18:16:35;10.33;;;7.30;;
47844;SDS011;33605;48.822;8.796;2022-09-30T18:19:02;8.70;;;6.60;;
47844;SDS011;33605;48.822;8.796;2022-09-30T18:21:29;13.50;;;9.10;;
47844;SDS011;33605;48.822;8.796;2022-09-30T18:23:55;18.57;;;11.87;;
47844;SDS011;33605;48.822;8.796;2022-09-30T18:26:21;21.93;;;10.83;;
47844;SDS011;33605;48.822;8.796;2022-09-30T18:28:48;13.90;;;8.47;;
47844;SDS011;33605;48.822;8.796;2022-09-30T18:31:16;14.10;;;9.80;;
47844;SDS011;33605;48.822;8.796;2022-09-30T18:33:52;11.80;;;9.20;;
47844;SDS011;33605;48.822;8.796;2022-09-30T18:36:18;10.40;;;8.00;;
47844;SDS011;33605;48.822;8.796;2022-09-30T18:38:45;8.87;;;7.77;;